sensor_id;sensor_type;location;lat;lon;timestamp;P1;durP1;ratioP1;P2;durP2;ratioP2
15889;SDS011;8043;49.388;12.128;2022-09-17T00:02:38;2.10;;;1.53;;
15889;SDS011;8043;49.388;12.128;2022-09-17T00:07:42;1.10;;;0.87;;
15889;SDS011;8043;49.388;12.128;2022-09-17T00:12:44;2.10;;;1.40;;
15889;SDS011;8043;49.388;12.128;2022-09-17T00:17:47;3.20;;;2.10;;
15889;SDS011;8043;49.388;12.128;2022-09-17T00:22:54;1.80;;;1.30;;
15889;SDS011;8043;49.388;12.128;2022-09-17T00:27:57;2.53;;;1.57;;
15889;SDS011;8043;49.388;12.128;2022-09-17T00:32:59;2.00;;;1.40;;
15889;SDS011;8043;49.388;12.128;2022-09-17T00:38:01;5.10;;;1.20;;
15889;SDS011;8043;49.388;12.128;2022-09-17T00:43:03;1.83;;;1.60;;
15889;SDS011;8043;49.388;12.128;2022-09-17T00:48:08;2.13;;;1.80;;
15889;SDS011;8043;49.388;12.128;2022-09-17T00:53:12;2.20;;;1.43;;
15889;SDS011;8043;49.388;12.128;2022-09-17T00:58:16;3.73;;;1.50;;
15889;SDS011;8043;49.388;12.128;2022-09-17T01:03:19;2.73;;;1.47;;
15889;SDS011;8043;49.388;12.128;2022-09-17T01:19:03;1.07;;;1.03;;
15889;SDS011;8043;49.388;12.128;2022-09-17T01:29:33;3.03;;;1.90;;
15889;SDS011;8043;49.388;12.128;2022-09-17T01:34:54;3.13;;;2.30;;
15889;SDS011;8043;49.388;12.128;2022-09-17T01:40:11;4.20;;;2.20;;
15889;SDS011;8043;49.388;12.128;2022-09-17T01:45:11;4.83;;;2.43;;
15889;SDS011;8043;49.388;12.128;2022-09-17T01:50:21;2.87;;;1.80;;
15889;SDS011;8043;49.388;12.128;2022-09-17T01:55:25;3.30;;;1.70;;
15889;SDS011;8043;49.388;12.128;2022-09-17T02:00:29;2.13;;;1.80;;
15889;SDS011;8043;49.388;12.128;2022-09-17T02:05:38;2.33;;;1.83;;
15889;SDS011;8043;49.388;12.128;2022-09-17T02:10:44;3.33;;;1.97;;
15889;SDS011;8043;49.388;12.128;2022-09-17T02:15:59;2.50;;;1.87;;
15889;SDS011;8043;49.388;12.128;2022-09-17T02:21:10;3.83;;;2.37;;
15889;SDS011;8043;49.388;12.128;2022-09-17T02:26:14;5.13;;;2.23;;
15889;SDS011;8043;49.388;12.128;2022-09-17T02:31:18;2.23;;;1.90;;
15889;SDS011;8043;49.388;12.128;2022-09-17T02:36:20;3.27;;;2.07;;
15889;SDS011;8043;49.388;12.128;2022-09-17T02:41:25;2.50;;;2.10;;
15889;SDS011;8043;49.388;12.128;2022-09-17T02:46:55;5.10;;;1.83;;
15889;SDS011;8043;49.388;12.128;2022-09-17T02:52:16;3.43;;;2.20;;
15889;SDS011;8043;49.388;12.128;2022-09-17T02:57:22;5.07;;;2.63;;
15889;SDS011;8043;49.388;12.128;2022-09-17T03:07:42;3.13;;;1.73;;
15889;SDS011;8043;49.388;12.128;2022-09-17T03:12:45;7.07;;;2.30;;
15889;SDS011;8043;49.388;12.128;2022-09-17T03:17:47;6.87;;;2.77;;
15889;SDS011;8043;49.388;12.128;2022-09-17T03:22:50;6.97;;;2.70;;
15889;SDS011;8043;49.388;12.128;2022-09-17T03:27:52;6.87;;;2.97;;
15889;SDS011;8043;49.388;12.128;2022-09-17T03:32:54;5.17;;;2.70;;
15889;SDS011;8043;49.388;12.128;2022-09-17T03:37:56;6.37;;;2.93;;
15889;SDS011;8043;49.388;12.128;2022-09-17T03:42:59;7.73;;;2.63;;
15889;SDS011;8043;49.388;12.128;2022-09-17T03:48:01;2.77;;;1.90;;
15889;SDS011;8043;49.388;12.128;2022-09-17T03:53:03;5.83;;;2.00;;
15889;SDS011;8043;49.388;12.128;2022-09-17T03:58:05;4.60;;;3.20;;
15889;SDS011;8043;49.388;12.128;2022-09-17T04:03:08;5.67;;;1.97;;
15889;SDS011;8043;49.388;12.128;2022-09-17T04:08:10;4.97;;;2.07;;
15889;SDS011;8043;49.388;12.128;2022-09-17T04:13:13;6.10;;;2.20;;
15889;SDS011;8043;49.388;12.128;2022-09-17T04:18:15;5.97;;;2.23;;
15889;SDS011;8043;49.388;12.128;2022-09-17T04:23:17;4.50;;;2.73;;
15889;SDS011;8043;49.388;12.128;2022-09-17T04:28:20;2.63;;;1.97;;
15889;SDS011;8043;49.388;12.128;2022-09-17T04:33:22;2.43;;;2.00;;
15889;SDS011;8043;49.388;12.128;2022-09-17T04:38:24;5.53;;;2.10;;
15889;SDS011;8043;49.388;12.128;2022-09-17T04:43:27;3.03;;;2.10;;
15889;SDS011;8043;49.388;12.128;2022-09-17T04:48:29;5.17;;;2.27;;
15889;SDS011;8043;49.388;12.128;2022-09-17T04:53:31;4.23;;;2.20;;
15889;SDS011;8043;49.388;12.128;2022-09-17T04:58:33;3.50;;;2.20;;
15889;SDS011;8043;49.388;12.128;2022-09-17T05:03:35;8.60;;;2.83;;
15889;SDS011;8043;49.388;12.128;2022-09-17T05:08:37;3.87;;;2.40;;
15889;SDS011;8043;49.388;12.128;2022-09-17T05:13:40;4.93;;;2.00;;
15889;SDS011;8043;49.388;12.128;2022-09-17T05:18:42;2.77;;;1.97;;
15889;SDS011;8043;49.388;12.128;2022-09-17T05:23:44;7.00;;;2.57;;
15889;SDS011;8043;49.388;12.128;2022-09-17T05:28:47;4.57;;;2.47;;
15889;SDS011;8043;49.388;12.128;2022-09-17T05:33:49;3.67;;;1.97;;
15889;SDS011;8043;49.388;12.128;2022-09-17T05:38:51;4.57;;;1.80;;
15889;SDS011;8043;49.388;12.128;2022-09-17T05:43:54;2.57;;;2.10;;
15889;SDS011;8043;49.388;12.128;2022-09-17T05:48:56;3.33;;;2.23;;
15889;SDS011;8043;49.388;12.128;2022-09-17T05:53:58;5.87;;;2.90;;
15889;SDS011;8043;49.388;12.128;2022-09-17T05:59:00;8.50;;;2.17;;
15889;SDS011;8043;49.388;12.128;2022-09-17T06:04:02;4.90;;;2.43;;
15889;SDS011;8043;49.388;12.128;2022-09-17T06:09:05;5.67;;;2.23;;
15889;SDS011;8043;49.388;12.128;2022-09-17T06:14:08;5.13;;;2.80;;
15889;SDS011;8043;49.388;12.128;2022-09-17T06:19:10;3.93;;;1.93;;
15889;SDS011;8043;49.388;12.128;2022-09-17T06:24:12;3.80;;;2.13;;
15889;SDS011;8043;49.388;12.128;2022-09-17T06:29:14;3.80;;;2.07;;
15889;SDS011;8043;49.388;12.128;2022-09-17T06:34:17;1.60;;;1.47;;
15889;SDS011;8043;49.388;12.128;2022-09-17T06:39:19;2.67;;;1.70;;
15889;SDS011;8043;49.388;12.128;2022-09-17T06:44:21;2.57;;;1.40;;
15889;SDS011;8043;49.388;12.128;2022-09-17T06:49:23;2.83;;;1.50;;
15889;SDS011;8043;49.388;12.128;2022-09-17T06:54:26;3.10;;;1.57;;
15889;SDS011;8043;49.388;12.128;2022-09-17T06:59:28;2.63;;;1.00;;
15889;SDS011;8043;49.388;12.128;2022-09-17T07:04:30;5.03;;;1.50;;
15889;SDS011;8043;49.388;12.128;2022-09-17T07:09:33;3.00;;;1.40;;
15889;SDS011;8043;49.388;12.128;2022-09-17T07:14:35;2.57;;;1.60;;
15889;SDS011;8043;49.388;12.128;2022-09-17T07:19:37;2.53;;;1.10;;
15889;SDS011;8043;49.388;12.128;2022-09-17T07:24:39;3.43;;;1.40;;
15889;SDS011;8043;49.388;12.128;2022-09-17T07:29:41;1.50;;;1.00;;
15889;SDS011;8043;49.388;12.128;2022-09-17T07:34:43;2.80;;;1.53;;
15889;SDS011;8043;49.388;12.128;2022-09-17T07:39:46;1.50;;;1.03;;
15889;SDS011;8043;49.388;12.128;2022-09-17T07:44:48;2.00;;;1.30;;
15889;SDS011;8043;49.388;12.128;2022-09-17T07:49:50;0.80;;;0.80;;
15889;SDS011;8043;49.388;12.128;2022-09-17T07:54:52;1.93;;;0.80;;
15889;SDS011;8043;49.388;12.128;2022-09-17T07:59:54;0.93;;;0.67;;
15889;SDS011;8043;49.388;12.128;2022-09-17T08:04:56;3.63;;;0.77;;
15889;SDS011;8043;49.388;12.128;2022-09-17T08:09:59;0.80;;;0.50;;
15889;SDS011;8043;49.388;12.128;2022-09-17T08:15:01;1.03;;;0.77;;
15889;SDS011;8043;49.388;12.128;2022-09-17T08:20:04;1.33;;;0.60;;
15889;SDS011;8043;49.388;12.128;2022-09-17T08:25:07;1.60;;;0.77;;
15889;SDS011;8043;49.388;12.128;2022-09-17T08:30:09;0.40;;;0.40;;
15889;SDS011;8043;49.388;12.128;2022-09-17T08:35:12;0.77;;;0.47;;
15889;SDS011;8043;49.388;12.128;2022-09-17T08:40:16;0.50;;;0.30;;
15889;SDS011;8043;49.388;12.128;2022-09-17T08:45:20;0.77;;;0.77;;
15889;SDS011;8043;49.388;12.128;2022-09-17T08:50:28;0.97;;;0.50;;
15889;SDS011;8043;49.388;12.128;2022-09-17T08:55:36;1.30;;;0.70;;
15889;SDS011;8043;49.388;12.128;2022-09-17T09:01:11;0.83;;;0.63;;
15889;SDS011;8043;49.388;12.128;2022-09-17T09:06:22;0.60;;;0.43;;
15889;SDS011;8043;49.388;12.128;2022-09-17T09:11:25;5.10;;;0.50;;
15889;SDS011;8043;49.388;12.128;2022-09-17T09:16:30;0.77;;;0.40;;
15889;SDS011;8043;49.388;12.128;2022-09-17T09:21:37;1.00;;;0.80;;
15889;SDS011;8043;49.388;12.128;2022-09-17T09:26:54;2.90;;;1.30;;
15889;SDS011;8043;49.388;12.128;2022-09-17T09:31:59;1.63;;;0.93;;
15889;SDS011;8043;49.388;12.128;2022-09-17T09:42:34;2.20;;;1.00;;
15889;SDS011;8043;49.388;12.128;2022-09-17T09:47:59;3.13;;;0.63;;
15889;SDS011;8043;49.388;12.128;2022-09-17T09:53:15;1.47;;;0.97;;
15889;SDS011;8043;49.388;12.128;2022-09-17T09:58:38;2.52;;;1.00;;
15889;SDS011;8043;49.388;12.128;2022-09-17T10:03:42;2.20;;;1.60;;
15889;SDS011;8043;49.388;12.128;2022-09-17T10:14:40;1.63;;;1.00;;
15889;SDS011;8043;49.388;12.128;2022-09-17T10:19:19;2.17;;;1.10;;
15889;SDS011;8043;49.388;12.128;2022-09-17T10:24:24;5.90;;;1.83;;
15889;SDS011;8043;49.388;12.128;2022-09-17T10:29:28;1.67;;;1.30;;
15889;SDS011;8043;49.388;12.128;2022-09-17T10:34:30;5.30;;;2.23;;
15889;SDS011;8043;49.388;12.128;2022-09-17T10:39:34;4.60;;;2.17;;
15889;SDS011;8043;49.388;12.128;2022-09-17T10:44:49;6.93;;;2.50;;
15889;SDS011;8043;49.388;12.128;2022-09-17T10:49:58;4.03;;;2.17;;
15889;SDS011;8043;49.388;12.128;2022-09-17T11:11:28;4.03;;;2.10;;
15889;SDS011;8043;49.388;12.128;2022-09-17T11:26:45;2.47;;;1.50;;
15889;SDS011;8043;49.388;12.128;2022-09-17T11:37:07;4.40;;;2.00;;
15889;SDS011;8043;49.388;12.128;2022-09-17T11:42:13;2.10;;;1.43;;
15889;SDS011;8043;49.388;12.128;2022-09-17T11:47:28;5.33;;;1.90;;
15889;SDS011;8043;49.388;12.128;2022-09-17T11:52:37;4.70;;;1.70;;
15889;SDS011;8043;49.388;12.128;2022-09-17T11:57:41;2.90;;;1.70;;
15889;SDS011;8043;49.388;12.128;2022-09-17T12:03:00;2.83;;;2.17;;
15889;SDS011;8043;49.388;12.128;2022-09-17T12:23:42;6.10;;;2.17;;
15889;SDS011;8043;49.388;12.128;2022-09-17T12:34:30;4.33;;;1.90;;
15889;SDS011;8043;49.388;12.128;2022-09-17T12:44:48;5.10;;;1.50;;
15889;SDS011;8043;49.388;12.128;2022-09-17T12:50:00;7.03;;;2.73;;
15889;SDS011;8043;49.388;12.128;2022-09-17T12:55:32;2.20;;;1.23;;
15889;SDS011;8043;49.388;12.128;2022-09-17T13:00:36;8.67;;;2.10;;
15889;SDS011;8043;49.388;12.128;2022-09-17T13:16:32;7.67;;;2.58;;
15889;SDS011;8043;49.388;12.128;2022-09-17T13:21:46;7.77;;;1.83;;
15889;SDS011;8043;49.388;12.128;2022-09-17T13:26:48;6.73;;;2.30;;
15889;SDS011;8043;49.388;12.128;2022-09-17T13:31:52;2.50;;;1.00;;
15889;SDS011;8043;49.388;12.128;2022-09-17T13:36:55;8.57;;;2.33;;
15889;SDS011;8043;49.388;12.128;2022-09-17T13:42:01;2.97;;;1.73;;
15889;SDS011;8043;49.388;12.128;2022-09-17T13:47:09;7.60;;;1.90;;
15889;SDS011;8043;49.388;12.128;2022-09-17T13:52:13;4.53;;;1.07;;
15889;SDS011;8043;49.388;12.128;2022-09-17T13:57:17;3.37;;;1.30;;
15889;SDS011;8043;49.388;12.128;2022-09-17T14:07:33;5.20;;;1.57;;
15889;SDS011;8043;49.388;12.128;2022-09-17T14:17:48;2.37;;;0.90;;
15889;SDS011;8043;49.388;12.128;2022-09-17T14:22:58;2.13;;;0.67;;
15889;SDS011;8043;49.388;12.128;2022-09-17T14:28:06;2.83;;;1.20;;
15889;SDS011;8043;49.388;12.128;2022-09-17T14:33:07;0.67;;;0.57;;
15889;SDS011;8043;49.388;12.128;2022-09-17T14:38:26;0.73;;;0.53;;
15889;SDS011;8043;49.388;12.128;2022-09-17T14:49:17;6.20;;;1.70;;
15889;SDS011;8043;49.388;12.128;2022-09-17T14:54:17;4.57;;;2.07;;
15889;SDS011;8043;49.388;12.128;2022-09-17T14:59:28;4.50;;;1.83;;
15889;SDS011;8043;49.388;12.128;2022-09-17T15:04:32;1.53;;;1.00;;
15889;SDS011;8043;49.388;12.128;2022-09-17T15:09:34;1.43;;;0.70;;
15889;SDS011;8043;49.388;12.128;2022-09-17T15:14:36;0.50;;;0.50;;
15889;SDS011;8043;49.388;12.128;2022-09-17T15:19:40;1.57;;;0.80;;
15889;SDS011;8043;49.388;12.128;2022-09-17T15:24:57;1.37;;;0.80;;
15889;SDS011;8043;49.388;12.128;2022-09-17T15:35:26;2.47;;;0.87;;
15889;SDS011;8043;49.388;12.128;2022-09-17T15:45:34;2.53;;;0.60;;
15889;SDS011;8043;49.388;12.128;2022-09-17T15:50:51;0.83;;;0.73;;
15889;SDS011;8043;49.388;12.128;2022-09-17T15:55:58;1.87;;;0.77;;
15889;SDS011;8043;49.388;12.128;2022-09-17T16:11:36;1.77;;;0.73;;
15889;SDS011;8043;49.388;12.128;2022-09-17T16:16:39;2.03;;;0.60;;
15889;SDS011;8043;49.388;12.128;2022-09-17T16:21:42;5.00;;;0.73;;
15889;SDS011;8043;49.388;12.128;2022-09-17T16:26:44;1.23;;;0.53;;
15889;SDS011;8043;49.388;12.128;2022-09-17T16:31:46;1.80;;;0.60;;
15889;SDS011;8043;49.388;12.128;2022-09-17T16:36:50;0.77;;;0.50;;
15889;SDS011;8043;49.388;12.128;2022-09-17T16:41:52;1.50;;;0.87;;
15889;SDS011;8043;49.388;12.128;2022-09-17T16:46:54;2.97;;;1.00;;
15889;SDS011;8043;49.388;12.128;2022-09-17T16:51:56;0.87;;;0.60;;
15889;SDS011;8043;49.388;12.128;2022-09-17T16:56:58;4.43;;;1.20;;
15889;SDS011;8043;49.388;12.128;2022-09-17T17:02:01;3.50;;;1.07;;
15889;SDS011;8043;49.388;12.128;2022-09-17T17:07:03;2.60;;;1.00;;
15889;SDS011;8043;49.388;12.128;2022-09-17T17:12:05;2.00;;;1.03;;
15889;SDS011;8043;49.388;12.128;2022-09-17T17:17:07;1.07;;;0.73;;
15889;SDS011;8043;49.388;12.128;2022-09-17T17:22:10;1.33;;;1.20;;
15889;SDS011;8043;49.388;12.128;2022-09-17T17:27:12;1.70;;;0.63;;
15889;SDS011;8043;49.388;12.128;2022-09-17T17:32:15;1.43;;;0.83;;
15889;SDS011;8043;49.388;12.128;2022-09-17T17:37:17;5.07;;;3.50;;
15889;SDS011;8043;49.388;12.128;2022-09-17T17:42:21;4.20;;;2.10;;
15889;SDS011;8043;49.388;12.128;2022-09-17T17:47:23;5.87;;;2.10;;
15889;SDS011;8043;49.388;12.128;2022-09-17T17:52:25;3.87;;;1.90;;
15889;SDS011;8043;49.388;12.128;2022-09-17T17:57:27;3.67;;;1.43;;
15889;SDS011;8043;49.388;12.128;2022-09-17T18:02:30;0.80;;;0.77;;
15889;SDS011;8043;49.388;12.128;2022-09-17T18:07:37;2.20;;;1.23;;
15889;SDS011;8043;49.388;12.128;2022-09-17T18:12:39;2.13;;;1.07;;
15889;SDS011;8043;49.388;12.128;2022-09-17T18:17:43;1.47;;;0.90;;
15889;SDS011;8043;49.388;12.128;2022-09-17T18:22:47;1.97;;;0.80;;
15889;SDS011;8043;49.388;12.128;2022-09-17T18:27:49;4.37;;;1.20;;
15889;SDS011;8043;49.388;12.128;2022-09-17T18:32:52;1.43;;;1.00;;
15889;SDS011;8043;49.388;12.128;2022-09-17T18:37:54;5.03;;;1.30;;
15889;SDS011;8043;49.388;12.128;2022-09-17T18:42:56;13.57;;;5.67;;
15889;SDS011;8043;49.388;12.128;2022-09-17T18:47:58;1.93;;;1.57;;
15889;SDS011;8043;49.388;12.128;2022-09-17T18:53:00;2.10;;;1.20;;
15889;SDS011;8043;49.388;12.128;2022-09-17T18:58:02;1.33;;;1.00;;
15889;SDS011;8043;49.388;12.128;2022-09-17T19:03:05;1.90;;;1.27;;
15889;SDS011;8043;49.388;12.128;2022-09-17T19:08:07;3.47;;;1.50;;
15889;SDS011;8043;49.388;12.128;2022-09-17T19:13:09;1.20;;;1.10;;
15889;SDS011;8043;49.388;12.128;2022-09-17T19:18:11;3.73;;;1.20;;
15889;SDS011;8043;49.388;12.128;2022-09-17T19:23:14;1.00;;;0.87;;
15889;SDS011;8043;49.388;12.128;2022-09-17T19:28:16;1.43;;;0.73;;
15889;SDS011;8043;49.388;12.128;2022-09-17T19:33:19;0.93;;;0.80;;
15889;SDS011;8043;49.388;12.128;2022-09-17T19:38:23;1.40;;;0.70;;
15889;SDS011;8043;49.388;12.128;2022-09-17T19:43:26;3.70;;;1.03;;
15889;SDS011;8043;49.388;12.128;2022-09-17T19:48:29;0.93;;;0.60;;
15889;SDS011;8043;49.388;12.128;2022-09-17T19:53:32;0.40;;;0.40;;
15889;SDS011;8043;49.388;12.128;2022-09-17T19:58:34;2.53;;;1.63;;
15889;SDS011;8043;49.388;12.128;2022-09-17T20:03:40;4.17;;;0.93;;
15889;SDS011;8043;49.388;12.128;2022-09-17T20:08:52;0.60;;;0.60;;
15889;SDS011;8043;49.388;12.128;2022-09-17T20:13:56;0.77;;;0.77;;
15889;SDS011;8043;49.388;12.128;2022-09-17T20:19:04;1.80;;;0.70;;
15889;SDS011;8043;49.388;12.128;2022-09-17T20:24:07;1.07;;;0.50;;
15889;SDS011;8043;49.388;12.128;2022-09-17T20:29:09;0.47;;;0.47;;
15889;SDS011;8043;49.388;12.128;2022-09-17T20:34:12;1.43;;;0.67;;
15889;SDS011;8043;49.388;12.128;2022-09-17T20:39:14;0.77;;;0.70;;
15889;SDS011;8043;49.388;12.128;2022-09-17T20:44:16;1.13;;;0.73;;
15889;SDS011;8043;49.388;12.128;2022-09-17T20:49:20;0.90;;;0.67;;
15889;SDS011;8043;49.388;12.128;2022-09-17T20:54:22;3.03;;;1.20;;
15889;SDS011;8043;49.388;12.128;2022-09-17T20:59:24;0.70;;;0.70;;
15889;SDS011;8043;49.388;12.128;2022-09-17T21:04:28;2.10;;;0.70;;
15889;SDS011;8043;49.388;12.128;2022-09-17T21:09:30;3.00;;;1.27;;
15889;SDS011;8043;49.388;12.128;2022-09-17T21:14:34;1.67;;;0.53;;
15889;SDS011;8043;49.388;12.128;2022-09-17T21:19:36;2.07;;;0.50;;
15889;SDS011;8043;49.388;12.128;2022-09-17T21:24:38;0.60;;;0.50;;
15889;SDS011;8043;49.388;12.128;2022-09-17T21:29:40;2.37;;;0.90;;
15889;SDS011;8043;49.388;12.128;2022-09-17T21:34:42;0.83;;;0.70;;
15889;SDS011;8043;49.388;12.128;2022-09-17T21:39:45;0.83;;;0.50;;
15889;SDS011;8043;49.388;12.128;2022-09-17T21:44:47;4.10;;;0.60;;
15889;SDS011;8043;49.388;12.128;2022-09-17T21:49:49;0.40;;;0.40;;
15889;SDS011;8043;49.388;12.128;2022-09-17T21:54:51;1.37;;;0.70;;
15889;SDS011;8043;49.388;12.128;2022-09-17T21:59:53;0.50;;;0.50;;
15889;SDS011;8043;49.388;12.128;2022-09-17T22:04:55;0.70;;;0.57;;
15889;SDS011;8043;49.388;12.128;2022-09-17T22:09:58;0.40;;;0.40;;
15889;SDS011;8043;49.388;12.128;2022-09-17T22:15:00;3.80;;;1.03;;
15889;SDS011;8043;49.388;12.128;2022-09-17T22:20:03;0.83;;;0.70;;
15889;SDS011;8043;49.388;12.128;2022-09-17T22:25:05;1.53;;;0.57;;
15889;SDS011;8043;49.388;12.128;2022-09-17T22:30:08;0.80;;;0.80;;
15889;SDS011;8043;49.388;12.128;2022-09-17T22:35:11;2.77;;;0.70;;
15889;SDS011;8043;49.388;12.128;2022-09-17T22:40:13;1.30;;;0.50;;
15889;SDS011;8043;49.388;12.128;2022-09-17T22:45:15;1.10;;;0.57;;
15889;SDS011;8043;49.388;12.128;2022-09-17T22:50:18;0.73;;;0.60;;
15889;SDS011;8043;49.388;12.128;2022-09-17T22:55:20;0.90;;;0.60;;
15889;SDS011;8043;49.388;12.128;2022-09-17T23:00:22;0.30;;;0.30;;
15889;SDS011;8043;49.388;12.128;2022-09-17T23:05:25;0.93;;;0.53;;
15889;SDS011;8043;49.388;12.128;2022-09-17T23:10:27;2.03;;;0.90;;
15889;SDS011;8043;49.388;12.128;2022-09-17T23:15:30;0.60;;;0.40;;
15889;SDS011;8043;49.388;12.128;2022-09-17T23:20:32;0.50;;;0.50;;
15889;SDS011;8043;49.388;12.128;2022-09-17T23:25:35;3.10;;;0.90;;
15889;SDS011;8043;49.388;12.128;2022-09-17T23:30:37;3.77;;;1.00;;
15889;SDS011;8043;49.388;12.128;2022-09-17T23:35:39;0.70;;;0.70;;
15889;SDS011;8043;49.388;12.128;2022-09-17T23:40:41;1.07;;;0.97;;
15889;SDS011;8043;49.388;12.128;2022-09-17T23:45:43;0.70;;;0.70;;
15889;SDS011;8043;49.388;12.128;2022-09-17T23:50:46;2.10;;;0.80;;
15889;SDS011;8043;49.388;12.128;2022-09-17T23:55:48;2.97;;;1.13;;
